Hood River, OR (97031)

8:38 PM PDT on August 27, 2016 (GMT -0700)
Hood River Valley | | Change Station
Active Advisory: Fire Weather Warning

Elev 600 ft 45.66 °N, 121.55 °W | Updated 4 seconds ago

Clear
Clear
73.2 °F
Feels Like 77 °F
N
8.0
Wind Variable Wind from WNW
Gusts 12.0 mph

Today
High -- | Low -- °F
--% Chance of Precip.
Yesterday
High -- | Low -- °F
Precip. -- in
Pressure 29.82 in
Visibility 10.0 miles
Clouds Clear
Heat Index 77 °F
Dew Point 58 °F
Humidity 58%
Rainfall 0.00 in
Snow Depth Not available.
6:21 AM 7:52 PM
Waning Crescent, 19% visible
METAR KDLS 280253Z AUTO 30018G26KT 10SM CLR 27/12 A2983 RMK AO2 PK WND 32030/0201 SLP098 T02670117 51011
Pressure 29.82 in
Visibility 10.0 miles
Clouds Clear
Heat Index 77 °F
Dew Point 58 °F
Humidity 58%
Rainfall 0.00 in
Snow Depth Not available.
6:21 AM 7:52 PM
Waning Crescent, 19% visible
METAR KDLS 280253Z AUTO 30018G26KT 10SM CLR 27/12 A2983 RMK AO2 PK WND 32030/0201 SLP098 T02670117 51011

10-Day Weather Forecast

Almanac

Astronomy

Aug. 27, 2016 Rise Set
Actual Time
Civil Twilight
Nautical Twilight
Astronomical Twilight
Moon
Length of Visible Light
Length of Day
Tomorrow will be .
, % of the Moon is Illuminated

Today's Extremes

State Highs State Lows

Community

WunderPhotos

Upload Photos

1,935,519 photos uploaded!

WunderBlog® & News

Nearby

Air Quality

  Air Quality AQ Index Pollutant
Not available.

Snow Depth

Station Depth Elevation

Earthquake Activity

City Distance Mag. Time & Date
Minimum magnitude displayed is 2.5.

Coastal Water Temperatures

Place Temperature

Stations

Nearby Weather Stations

Station Location Temp. Windchill Dew Point Humidity Wind Precip. Elev Updated Type
                   

Watches & Warnings

Fire Weather Warning
Issued: 12:06 PM PDT Aug. 27, 2016 – National Weather Service

... Red flag warning remains in effect until 9 PM PDT this evening
for gusty winds and low humidity...

* affected area... in Washington... fire weather zones 639... 641
and 675 covering the eastern Columbia River gorge and most of
Klickitat County... the lower Columbia Basin... the Yakima
Valley... and the Blue Mountain foothills. In Oregon... fire
weather zones 639 and 641 covering the eastern Columbia River
gorge... the lower Columbia Basin... and the Blue Mountain
foothills.

* Wind... southwest to west wind 15 to 25 mph with gusts up to
35 mph. The strongest wind will occur in the eastern Columbia
River gorge.

* Humidity... 15 to 25 percent.

* Impacts... any fires that develop will likely spread rapidly.
The grassy areas will easily ignite with vehicle exhaust.
Outdoor burning is not recommended. Keep vehicles with a hot
exhaust off of dry grass.

Precautionary/preparedness actions...

A red flag warning means that critical fire weather conditions
are either occurring now... .or will shortly. A combination of
strong winds... low relative humidity... and warm temperatures can
contribute to extreme fire behavior.